Nefteyugansk, Russia
Current Conditions -  °F | °C
As of 10:00 PM on Monday 22 Dec 2014 (Local Time) from USRR Reporting Station
Broken Clouds Broken Clouds  
Wind Chill: 13°   Ceiling: 21000
Heat Index: 23°   Visibility: 4mi
Dew Point: 21°   Wind: 9mph
Humidity: 93%   Direction: 210°SSW
Pressure: 29.85"   Gusts: NA
Location:  61.08°N, 72.7°E
Report Text: USRR 221700Z 21004MPS 180V240 7000 BKN210 M05/M06 Q1011 NOSIGRMK QFE753 25////38
Loading
Personal Weather Stations






























Interactive Weather Map New forecast layout! Learn more

10-Day Weather Forecast

Advertisements
Track Severe Weather on mobile